PARC

Details ICAO PARC (ARC)
Name Arctic_Village
Region USA (Alaska)
Timezone America/Anchorage (UTC-9.0)
Plans Departing 6
Arriving 8
Stats Elevation 2,084 ft / 635 m (AMSL)
Location 68.115838° -145.574587°
Runways 1
Magnetic Variation 18.775° E
Sunrise Unknown / Unknown
Sunset Unknown / Unknown
Advertisement - Login to hide

Runways

ID Width Length Bearing (true) Bearing (mag) Surface Threshold Offset Overrun Length
02 75 ft / 23 m 4,505 ft / 1,373 m 44.99° 26.22° Gravel 0 ft / 0 m 0 ft / 0 m
20 75 ft / 23 m 4,505 ft / 1,373 m 225.01° 206.24° Gravel 0 ft / 0 m 0 ft / 0 m

Map

Weather


0- 5 10 15 20 25 30 35+ Temperature / ° C

Clouds and Precipitation
Forecast for 2017-12-16 18:00 UTC. Updated 4 minutes ago

Ground ~20,000 ft ~40,000 ft Winds

METAR

PARC 161456Z AUTO 35005KT 5SM -SN BR OVC018 M08/M09 A2918 RMK AO2 SNB35 SLP945 P0000 60000 T10831089 56020 FZRANO

TAF

Not found

Frequencies

Recorded 135.75 MHz AWOS
Unicom 122.90 MHz ARCTIC_VILLAGE MULT
Warning: Do not use this data for real-world aviation or navigation. No guarantee of current accuracy is given.